createdAt,value
2023-04-09T00:01:22.294Z,93.07
2023-04-09T00:03:49.627Z,93.21
2023-04-09T00:06:18.308Z,91.72
2023-04-09T00:08:45.570Z,91.97
2023-04-09T00:11:13.152Z,91.86
2023-04-09T00:13:40.452Z,91.63
2023-04-09T00:16:08.383Z,92.84
2023-04-09T00:18:36.174Z,92.30
2023-04-09T00:21:03.494Z,91.40
2023-04-09T00:23:32.081Z,91.10
2023-04-09T00:25:59.345Z,90.90
2023-04-09T00:28:26.682Z,90.48
2023-04-09T00:30:53.939Z,92.04
2023-04-09T00:33:21.198Z,92.97
2023-04-09T00:35:48.493Z,93.07
2023-04-09T00:38:16.351Z,92.69
2023-04-09T00:40:44.992Z,91.61
2023-04-09T00:43:12.267Z,91.41
2023-04-09T00:45:39.587Z,90.29
2023-04-09T00:48:06.928Z,90.22
2023-04-09T00:50:34.194Z,90.08
2023-04-09T00:53:01.991Z,91.98
2023-04-09T00:55:29.984Z,91.83
2023-04-09T00:57:58.602Z,90.49
2023-04-09T01:00:27.630Z,90.18
2023-04-09T01:02:57.423Z,91.15
2023-04-09T01:05:25.715Z,90.25
2023-04-09T01:07:59.910Z,90.04
2023-04-09T01:10:31.921Z,90.55
2023-04-09T01:13:08.211Z,90.21
2023-04-09T01:15:37.541Z,90.02
2023-04-09T01:18:07.264Z,91.20
2023-04-09T01:20:36.535Z,92.95
2023-04-09T01:23:08.740Z,95.28
2023-04-09T01:25:44.725Z,95.83
2023-04-09T01:28:17.762Z,93.77
2023-04-09T01:30:47.564Z,92.77
2023-04-09T01:33:15.470Z,93.32
2023-04-09T01:35:44.579Z,93.12
2023-04-09T01:38:12.210Z,93.03
2023-04-09T01:40:39.862Z,94.80
2023-04-09T01:43:08.655Z,95.18
2023-04-09T01:45:37.410Z,93.80
2023-04-09T01:48:05.770Z,92.40
2023-04-09T01:50:33.329Z,92.31
2023-04-09T01:53:01.227Z,93.20
2023-04-09T01:55:28.502Z,91.65
2023-04-09T01:57:55.844Z,92.44
2023-04-09T02:00:24.151Z,92.05
2023-04-09T02:02:56.484Z,91.59
2023-04-09T02:05:27.093Z,91.79
2023-04-09T02:07:56.805Z,92.51
2023-04-09T02:10:25.677Z,91.26
2023-04-09T02:12:53.351Z,90.41
2023-04-09T02:15:21.007Z,90.59
2023-04-09T02:17:48.368Z,91.89
2023-04-09T02:20:18.835Z,92.40
2023-04-09T02:22:46.148Z,91.10
2023-04-09T02:25:13.491Z,91.23
2023-04-09T02:27:40.752Z,91.40
2023-04-09T02:30:08.631Z,91.08
2023-04-09T02:32:35.969Z,91.90
2023-04-09T02:35:03.529Z,90.87
2023-04-09T02:37:32.203Z,90.19
2023-04-09T02:39:59.564Z,89.24
2023-04-09T02:42:26.839Z,89.01
2023-04-09T02:44:54.117Z,89.98
2023-04-09T02:47:21.437Z,91.39
2023-04-09T02:49:48.701Z,92.58
2023-04-09T02:52:15.989Z,92.20
2023-04-09T02:54:44.558Z,91.60
2023-04-09T02:57:11.838Z,91.89
2023-04-09T02:59:40.629Z,92.56
2023-04-09T03:02:07.985Z,93.58
2023-04-09T03:04:35.316Z,93.25
2023-04-09T03:07:02.618Z,92.24
2023-04-09T03:09:30.326Z,92.40
2023-04-09T03:11:58.944Z,94.96
2023-04-09T03:14:26.228Z,94.56
2023-04-09T03:16:53.498Z,95.25
2023-04-09T03:19:20.764Z,96.01
2023-04-09T03:21:49.205Z,96.21
2023-04-09T03:24:16.638Z,96.75
2023-04-09T03:26:43.940Z,95.93
2023-04-09T03:29:12.513Z,93.74
2023-04-09T03:31:39.875Z,92.72
2023-04-09T03:34:07.239Z,92.46
2023-04-09T03:36:34.544Z,92.17
2023-04-09T03:39:01.960Z,91.66
2023-04-09T03:41:29.232Z,90.88
2023-04-09T03:43:56.774Z,90.41
2023-04-09T03:46:25.420Z,90.65
2023-04-09T03:48:52.999Z,91.86
2023-04-09T03:51:20.420Z,92.70
2023-04-09T03:53:47.689Z,93.33
2023-04-09T03:56:14.951Z,91.87
2023-04-09T03:58:42.217Z,91.36
2023-04-09T04:01:09.497Z,92.05
2023-04-09T04:03:38.219Z,91.74
2023-04-09T04:06:05.728Z,91.47
2023-04-09T04:08:33.018Z,91.84
2023-04-09T04:11:03.938Z,92.12
2023-04-09T04:13:31.267Z,92.22
2023-04-09T04:15:58.559Z,91.72
2023-04-09T04:18:26.051Z,90.89
2023-04-09T04:20:54.622Z,91.23
2023-04-09T04:23:21.872Z,91.00
2023-04-09T04:25:49.278Z,92.07
2023-04-09T04:28:16.540Z,92.40
2023-04-09T04:30:43.829Z,92.07
2023-04-09T04:33:11.346Z,90.69
2023-04-09T04:35:38.703Z,90.27
2023-04-09T04:38:07.366Z,90.80
2023-04-09T04:40:36.740Z,91.14
2023-04-09T04:43:03.987Z,91.11
2023-04-09T04:45:31.285Z,91.35
2023-04-09T04:47:58.652Z,91.15
2023-04-09T04:50:26.050Z,91.32
2023-04-09T04:52:53.338Z,91.76
2023-04-09T04:55:21.908Z,90.47
2023-04-09T04:57:51.113Z,90.32
2023-04-09T05:00:18.808Z,90.51
2023-04-09T05:02:46.208Z,90.66
2023-04-09T05:05:13.649Z,90.56
2023-04-09T05:07:40.921Z,89.57
2023-04-09T05:10:09.130Z,89.38
2023-04-09T05:12:37.772Z,90.06
2023-04-09T05:15:05.762Z,88.80
2023-04-09T05:17:33.107Z,88.53
2023-04-09T05:20:00.546Z,88.54
2023-04-09T05:22:27.922Z,88.37
2023-04-09T05:24:55.172Z,86.79
2023-04-09T05:27:24.224Z,85.98
2023-04-09T05:29:52.889Z,84.60
2023-04-09T05:32:20.222Z,85.32
2023-04-09T05:34:47.541Z,85.91
2023-04-09T05:37:14.938Z,86.67
2023-04-09T05:39:42.186Z,85.96
2023-04-09T05:42:09.455Z,84.65
2023-04-09T05:44:36.976Z,85.13
2023-04-09T05:47:05.876Z,84.34
2023-04-09T05:49:33.151Z,83.05
2023-04-09T05:52:00.434Z,82.19
2023-04-09T05:54:27.737Z,81.36
2023-04-09T05:56:54.979Z,80.52
2023-04-09T05:59:22.592Z,80.77
2023-04-09T06:01:49.901Z,79.69
2023-04-09T06:04:18.648Z,79.00
2023-04-09T06:06:47.040Z,79.28
2023-04-09T06:09:14.301Z,80.04
2023-04-09T06:11:41.628Z,80.68
2023-04-09T06:14:08.938Z,80.49
2023-04-09T06:16:36.422Z,81.80
2023-04-09T06:19:03.689Z,82.48
2023-04-09T06:21:32.330Z,82.77
2023-04-09T06:23:59.663Z,80.39
2023-04-09T06:26:27.020Z,80.59
2023-04-09T06:28:54.532Z,79.17
2023-04-09T06:31:21.817Z,77.56
2023-04-09T06:33:49.106Z,76.68
2023-04-09T06:36:16.487Z,75.77
2023-04-09T06:38:45.212Z,75.39
2023-04-09T06:41:12.826Z,74.94
2023-04-09T06:43:40.868Z,74.54
2023-04-09T06:46:08.621Z,74.52
2023-04-09T06:48:35.939Z,74.02
2023-04-09T06:51:03.269Z,73.38
2023-04-09T06:53:30.573Z,73.52
2023-04-09T06:55:59.143Z,74.76
2023-04-09T06:58:26.742Z,75.68
2023-04-09T07:00:54.582Z,75.55
2023-04-09T07:03:22.031Z,74.32
2023-04-09T07:05:49.630Z,74.75
2023-04-09T07:08:16.977Z,73.99
2023-04-09T07:10:44.238Z,72.66
2023-04-09T07:13:12.826Z,72.01
2023-04-09T07:15:41.715Z,72.33
2023-04-09T07:18:09.940Z,72.21
2023-04-09T07:20:37.369Z,73.12
2023-04-09T07:23:04.949Z,71.32
2023-04-09T07:25:32.311Z,69.72
2023-04-09T07:27:59.625Z,69.20
2023-04-09T07:30:28.324Z,69.65
2023-04-09T07:32:56.090Z,69.67
2023-04-09T07:35:23.381Z,70.83
2023-04-09T07:37:50.687Z,69.29
2023-04-09T07:40:17.970Z,69.13
2023-04-09T07:42:45.263Z,69.57
2023-04-09T07:45:12.591Z,69.75
2023-04-09T07:47:42.037Z,70.23
2023-04-09T07:50:09.930Z,69.72
2023-04-09T07:52:37.217Z,67.81
2023-04-09T07:55:04.802Z,68.03
2023-04-09T07:57:32.265Z,67.65
2023-04-09T07:59:59.620Z,67.48
2023-04-09T08:02:27.193Z,67.04
2023-04-09T08:04:56.348Z,66.81
2023-04-09T08:07:24.000Z,67.77
2023-04-09T08:09:51.353Z,66.76
2023-04-09T08:12:18.756Z,68.15
2023-04-09T08:14:46.336Z,67.08
2023-04-09T08:17:13.605Z,65.93
2023-04-09T08:19:42.114Z,67.70
2023-04-09T08:22:11.237Z,67.86
2023-04-09T08:24:40.123Z,66.88
2023-04-09T08:27:07.413Z,66.89
2023-04-09T08:29:34.806Z,65.79
2023-04-09T08:32:02.183Z,65.97
2023-04-09T08:34:29.531Z,65.38
2023-04-09T08:36:56.864Z,63.53
2023-04-09T08:39:26.068Z,64.16
2023-04-09T08:41:53.364Z,63.39
2023-04-09T08:44:22.041Z,62.17
2023-04-09T08:46:49.864Z,62.08
2023-04-09T08:49:17.154Z,61.57
2023-04-09T08:51:46.887Z,61.34
2023-04-09T08:54:15.693Z,61.92
2023-04-09T08:56:44.292Z,63.75
2023-04-09T08:59:11.549Z,61.93
2023-04-09T09:01:38.910Z,61.66
2023-04-09T09:04:07.009Z,59.04
2023-04-09T09:06:35.598Z,57.90
2023-04-09T09:09:04.222Z,57.82
2023-04-09T09:11:31.548Z,59.32
2023-04-09T09:14:01.000Z,59.31
2023-04-09T09:16:28.403Z,57.88
2023-04-09T09:18:56.993Z,58.46
2023-04-09T09:21:24.937Z,59.77
2023-04-09T09:23:52.209Z,57.67
2023-04-09T09:26:20.615Z,55.64
2023-04-09T09:28:49.104Z,56.76
2023-04-09T09:31:18.779Z,56.84
2023-04-09T09:33:46.729Z,56.41
2023-04-09T09:36:14.150Z,57.24
2023-04-09T09:38:57.138Z,56.45
2023-04-09T09:41:24.750Z,55.30
2023-04-09T09:43:52.600Z,55.63
2023-04-09T09:46:21.877Z,55.75
2023-04-09T09:48:49.818Z,54.83
2023-04-09T09:51:17.674Z,55.00
2023-04-09T09:53:47.714Z,55.95
2023-04-09T09:56:17.645Z,54.54
2023-04-09T09:58:48.129Z,54.01
2023-04-09T10:01:18.397Z,52.37
2023-04-09T10:03:47.176Z,52.51
2023-04-09T10:06:15.619Z,53.25
2023-04-09T10:08:43.941Z,52.34
2023-04-09T10:11:12.122Z,52.47
2023-04-09T10:13:40.758Z,52.89
2023-04-09T10:16:08.564Z,55.46
2023-04-09T10:18:36.511Z,53.51
2023-04-09T10:21:10.359Z,52.89
2023-04-09T10:23:43.481Z,52.52
2023-04-09T10:26:11.198Z,52.89
2023-04-09T10:28:39.028Z,52.35
2023-04-09T10:31:06.701Z,52.91
2023-04-09T10:33:34.543Z,51.84
2023-04-09T10:36:04.422Z,52.71
2023-04-09T10:38:37.506Z,54.26
2023-04-09T10:41:13.850Z,55.92
2023-04-09T10:43:41.365Z,55.08
2023-04-09T10:46:10.832Z,55.24
2023-04-09T10:48:38.131Z,56.20
2023-04-09T10:51:07.125Z,55.96
2023-04-09T10:53:34.567Z,55.21
2023-04-09T10:56:15.814Z,55.37
2023-04-09T10:58:43.078Z,55.33
2023-04-09T11:01:10.320Z,53.96
2023-04-09T11:03:45.964Z,54.55
2023-04-09T11:06:17.627Z,55.11
2023-04-09T11:08:45.284Z,55.46
2023-04-09T11:11:13.872Z,54.16
2023-04-09T11:13:41.848Z,53.58
2023-04-09T11:16:09.132Z,51.32
2023-04-09T11:18:37.033Z,51.78
2023-04-09T11:21:04.937Z,51.46
2023-04-09T11:23:32.861Z,53.33
2023-04-09T11:26:01.752Z,53.82
2023-04-09T11:28:30.329Z,52.22
2023-04-09T11:30:57.891Z,53.14
2023-04-09T11:33:32.298Z,51.55
2023-04-09T11:35:59.652Z,54.05
2023-04-09T11:38:27.317Z,52.74
2023-04-09T11:40:58.205Z,53.09
2023-04-09T11:43:25.901Z,50.66
2023-04-09T11:45:56.469Z,50.61
2023-04-09T11:48:24.978Z,50.04
2023-04-09T11:50:52.642Z,49.96
2023-04-09T11:53:20.329Z,50.26
2023-04-09T11:55:50.990Z,51.56
2023-04-09T11:58:18.383Z,52.30
2023-04-09T12:00:46.276Z,52.25
2023-04-09T12:03:16.713Z,50.89
2023-04-09T12:05:50.654Z,53.01
2023-04-09T12:08:23.504Z,51.32
2023-04-09T12:10:53.208Z,51.82
2023-04-09T12:13:21.318Z,50.08
2023-04-09T12:15:49.719Z,49.57
2023-04-09T12:18:18.466Z,52.03
2023-04-09T12:20:49.545Z,52.02
2023-04-09T12:23:17.351Z,52.38
2023-04-09T12:25:45.218Z,52.74
2023-04-09T12:28:13.640Z,52.28
2023-04-09T12:30:41.062Z,53.06
2023-04-09T12:33:10.268Z,52.59
2023-04-09T12:35:39.730Z,52.77
2023-04-09T12:38:07.058Z,52.02
2023-04-09T12:40:34.661Z,52.06
2023-04-09T12:43:02.455Z,52.51
2023-04-09T12:45:30.315Z,52.12
2023-04-09T12:47:58.022Z,52.62
2023-04-09T12:50:25.433Z,53.01
2023-04-09T12:52:54.003Z,52.71
2023-04-09T12:55:22.115Z,51.08
2023-04-09T12:57:50.788Z,51.29
2023-04-09T13:00:18.060Z,51.56
2023-04-09T13:02:45.650Z,52.63
2023-04-09T13:05:13.083Z,51.56
2023-04-09T13:07:42.706Z,49.47
2023-04-09T13:10:11.879Z,50.09
2023-04-09T13:12:39.215Z,50.81
2023-04-09T13:15:07.511Z,51.18
2023-04-09T13:17:34.853Z,50.94
2023-04-09T13:20:02.231Z,51.99
2023-04-09T13:22:29.571Z,50.18
2023-04-09T13:24:57.292Z,50.62
2023-04-09T13:27:25.877Z,51.14
2023-04-09T13:29:53.136Z,50.07
2023-04-09T13:32:21.978Z,48.80
2023-04-09T13:34:49.301Z,49.08
2023-04-09T13:37:16.612Z,48.55
2023-04-09T13:39:44.029Z,49.51
2023-04-09T13:42:14.154Z,48.95
2023-04-09T13:44:45.173Z,47.98
2023-04-09T13:47:13.374Z,48.38
2023-04-09T13:49:41.222Z,49.26
2023-04-09T13:52:08.566Z,49.11
2023-04-09T13:54:36.073Z,49.57
2023-04-09T13:57:03.863Z,48.88
2023-04-09T13:59:31.151Z,48.42
2023-04-09T14:01:59.867Z,48.65
2023-04-09T14:04:27.613Z,47.59
2023-04-09T14:06:54.898Z,47.14
2023-04-09T14:09:22.145Z,47.74
2023-04-09T14:11:49.435Z,47.78
2023-04-09T14:14:16.730Z,47.96
2023-04-09T14:16:44.019Z,46.35
2023-04-09T14:19:12.735Z,47.06
2023-04-09T14:21:41.000Z,47.54
2023-04-09T14:24:08.543Z,47.11
2023-04-09T14:26:35.922Z,45.51
2023-04-09T14:29:03.337Z,45.56
2023-04-09T14:31:30.653Z,45.72
2023-04-09T14:33:57.927Z,46.68
2023-04-09T14:36:27.676Z,45.32
2023-04-09T14:38:57.546Z,45.19
2023-04-09T14:41:25.413Z,45.47
2023-04-09T14:43:52.693Z,46.02
2023-04-09T14:46:20.277Z,46.25
2023-04-09T14:48:47.579Z,45.74
2023-04-09T14:51:14.856Z,44.66
2023-04-09T14:53:43.434Z,45.38
2023-04-09T14:56:10.739Z,45.31
2023-04-09T14:58:37.995Z,47.04
2023-04-09T15:01:05.468Z,46.82
2023-04-09T15:03:32.914Z,48.05
2023-04-09T15:06:00.559Z,47.03
2023-04-09T15:08:27.841Z,46.82
2023-04-09T15:10:56.427Z,46.69
2023-04-09T15:13:24.044Z,46.46
2023-04-09T15:15:51.343Z,47.48
2023-04-09T15:18:21.320Z,47.28
2023-04-09T15:20:49.384Z,48.56
2023-04-09T15:23:16.662Z,47.94
2023-04-09T15:25:43.928Z,46.23
2023-04-09T15:28:12.485Z,45.36
2023-04-09T15:30:40.896Z,46.04
2023-04-09T15:33:08.371Z,43.78
2023-04-09T15:35:36.238Z,42.47
2023-04-09T15:38:03.525Z,40.66
2023-04-09T15:40:31.080Z,39.10
2023-04-09T15:42:58.342Z,39.97
2023-04-09T15:45:30.078Z,38.43
2023-04-09T15:47:57.432Z,39.57
2023-04-09T15:50:24.815Z,38.76
2023-04-09T15:52:52.069Z,38.51
2023-04-09T15:55:19.358Z,39.95
2023-04-09T15:57:46.979Z,41.01
2023-04-09T16:00:15.334Z,41.92
2023-04-09T16:02:44.051Z,41.59
2023-04-09T16:05:11.324Z,42.07
2023-04-09T16:07:39.502Z,41.38
2023-04-09T16:10:07.312Z,41.68
2023-04-09T16:12:34.590Z,42.48
2023-04-09T16:15:02.284Z,42.80
2023-04-09T16:17:31.481Z,44.51
2023-04-09T16:20:03.618Z,44.63
2023-04-09T16:22:31.015Z,45.34
2023-04-09T16:24:58.269Z,44.40
2023-04-09T16:27:25.742Z,45.72
2023-04-09T16:29:53.044Z,44.60
2023-04-09T16:32:20.310Z,44.70
2023-04-09T16:34:47.777Z,45.93
2023-04-09T16:37:16.509Z,44.06
2023-04-09T16:39:43.770Z,44.83
2023-04-09T16:42:12.042Z,45.27
2023-04-09T16:44:39.307Z,45.94
2023-04-09T16:47:08.158Z,44.89
2023-04-09T16:49:35.450Z,45.67
2023-04-09T16:52:02.712Z,46.33
2023-04-09T16:54:31.931Z,46.89
2023-04-09T16:56:59.190Z,46.66
2023-04-09T16:59:26.455Z,46.94
2023-04-09T17:01:53.834Z,46.78
2023-04-09T17:04:21.284Z,46.45
2023-04-09T17:06:48.599Z,46.50
2023-04-09T17:09:16.285Z,46.68
2023-04-09T17:11:45.024Z,46.76
2023-04-09T17:14:12.302Z,47.39
2023-04-09T17:16:39.619Z,47.08
2023-04-09T17:19:08.782Z,47.01
2023-04-09T17:21:36.382Z,47.27
2023-04-09T17:24:03.638Z,47.43
2023-04-09T17:26:31.022Z,48.69
2023-04-09T17:28:59.626Z,49.11
2023-04-09T17:31:27.775Z,48.17
2023-04-09T17:33:55.778Z,48.38
2023-04-09T17:36:23.369Z,48.94
2023-04-09T17:38:52.075Z,49.37
2023-04-09T17:41:21.495Z,49.19
2023-04-09T17:43:48.798Z,49.82
2023-04-09T17:46:18.096Z,49.66
2023-04-09T17:48:45.588Z,50.27
2023-04-09T17:51:14.871Z,50.59
2023-04-09T17:53:42.160Z,50.90
2023-04-09T17:56:10.997Z,51.48
2023-04-09T17:58:38.234Z,51.67
2023-04-09T18:01:07.575Z,51.99
2023-04-09T18:03:36.538Z,52.69
2023-04-09T18:06:04.052Z,53.88
2023-04-09T18:08:31.526Z,54.73
2023-04-09T18:11:11.404Z,54.76
2023-04-09T18:13:40.236Z,55.40
2023-04-09T18:16:09.297Z,55.88
2023-04-09T18:18:37.933Z,56.04
2023-04-09T18:21:06.028Z,56.28
2023-04-09T18:23:33.482Z,55.62
2023-04-09T18:26:00.755Z,55.77
2023-04-09T18:28:28.080Z,55.60
2023-04-09T18:30:55.500Z,55.72
2023-04-09T18:33:22.838Z,53.67
2023-04-09T18:35:51.531Z,54.64
2023-04-09T18:38:18.852Z,55.45
2023-04-09T18:40:46.226Z,56.75
2023-04-09T18:43:13.751Z,54.78
2023-04-09T18:45:41.670Z,55.38
2023-04-09T18:48:09.040Z,55.71
2023-04-09T18:50:36.664Z,56.85
2023-04-09T18:53:06.575Z,57.31
2023-04-09T18:55:35.786Z,57.11
2023-04-09T18:58:03.457Z,56.83
2023-04-09T19:00:31.101Z,57.86
2023-04-09T19:02:58.500Z,58.31
2023-04-09T19:05:26.640Z,58.80
2023-04-09T19:07:58.351Z,59.58
2023-04-09T19:10:27.117Z,59.11
2023-04-09T19:12:54.573Z,60.13
2023-04-09T19:15:22.319Z,60.14
2023-04-09T19:17:49.640Z,60.41
2023-04-09T19:20:17.025Z,59.74
2023-04-09T19:22:46.770Z,60.18
2023-04-09T19:25:14.206Z,58.70
2023-04-09T19:27:42.788Z,59.22
2023-04-09T19:30:10.561Z,59.22
2023-04-09T19:32:38.226Z,62.55
2023-04-09T19:35:07.829Z,62.07
2023-04-09T19:37:35.264Z,60.98
2023-04-09T19:40:04.719Z,62.46
2023-04-09T19:42:32.698Z,63.62
2023-04-09T19:45:01.293Z,64.49
2023-04-09T19:47:29.072Z,64.54
2023-04-09T19:49:57.211Z,64.41
2023-04-09T19:52:24.477Z,65.14
2023-04-09T19:54:54.375Z,65.50
2023-04-09T19:57:24.113Z,64.96
2023-04-09T19:59:52.195Z,64.21
2023-04-09T20:02:21.056Z,64.23
2023-04-09T20:04:48.441Z,65.09
2023-04-09T20:07:16.386Z,65.56
2023-04-09T20:09:43.717Z,65.73
2023-04-09T20:12:11.135Z,66.49
2023-04-09T20:14:39.381Z,66.45
2023-04-09T20:17:08.781Z,67.05
2023-04-09T20:19:37.706Z,67.52
2023-04-09T20:22:05.235Z,67.91
2023-04-09T20:24:33.961Z,67.35
2023-04-09T20:27:01.526Z,66.65
2023-04-09T20:29:28.809Z,66.61
2023-04-09T20:31:56.121Z,66.79
2023-04-09T20:34:26.658Z,68.62
2023-04-09T20:36:55.405Z,68.23
2023-04-09T20:39:24.856Z,68.01
2023-04-09T20:41:52.159Z,68.20
2023-04-09T20:44:19.571Z,68.60
2023-04-09T21:01:19.187Z,69.38
2023-04-09T21:03:46.674Z,69.47
2023-04-09T21:06:14.327Z,69.47
2023-04-09T21:08:43.463Z,69.01
2023-04-09T21:11:10.853Z,70.23
2023-04-09T21:13:53.061Z,69.27
2023-04-09T21:16:23.927Z,71.46
2023-04-09T21:18:51.511Z,71.26
2023-04-09T21:21:19.138Z,71.09
2023-04-09T21:23:46.392Z,71.03
2023-04-09T21:26:14.982Z,71.45
2023-04-09T21:28:42.324Z,71.03
2023-04-09T21:31:10.378Z,69.97
2023-04-09T21:33:39.825Z,70.27
2023-04-09T21:36:08.119Z,71.86
2023-04-09T21:38:35.726Z,73.14
2023-04-09T21:41:03.026Z,73.34
2023-04-09T21:43:30.342Z,73.89
2023-04-09T21:45:58.386Z,72.78
2023-04-09T21:48:26.385Z,72.50
2023-04-09T21:50:55.019Z,73.13
2023-04-09T21:53:22.286Z,73.10
2023-04-09T21:55:49.547Z,72.15
2023-04-09T21:58:16.840Z,72.66
2023-04-09T22:00:44.139Z,72.42
2023-04-09T22:03:11.766Z,73.54
2023-04-09T22:05:39.162Z,75.03
2023-04-09T22:08:08.187Z,74.58
2023-04-09T22:10:35.655Z,74.94
2023-04-09T22:13:03.284Z,77.87
2023-04-09T22:15:30.689Z,78.19
2023-04-09T22:17:58.038Z,78.13
2023-04-09T22:20:26.304Z,77.84
2023-04-09T22:22:54.001Z,76.68
2023-04-09T22:25:22.858Z,76.00
2023-04-09T22:27:53.435Z,76.01
2023-04-09T22:30:23.569Z,75.46
2023-04-09T22:32:51.400Z,76.33
2023-04-09T22:35:18.858Z,79.10
2023-04-09T22:37:46.941Z,79.99
2023-04-09T22:40:15.516Z,80.21
2023-04-09T22:42:45.019Z,79.80
2023-04-09T22:45:12.355Z,79.85
2023-04-09T22:47:39.809Z,80.39
2023-04-09T22:50:07.932Z,79.37
2023-04-09T22:52:35.332Z,80.60
2023-04-09T22:55:02.931Z,82.81
2023-04-09T22:57:30.621Z,81.90
2023-04-09T22:59:59.298Z,80.88
2023-04-09T23:02:27.251Z,80.13
2023-04-09T23:04:54.804Z,80.41
2023-04-09T23:07:22.084Z,81.76
2023-04-09T23:09:49.502Z,81.15
2023-04-09T23:12:16.776Z,82.28
2023-04-09T23:14:44.040Z,82.32
2023-04-09T23:17:12.635Z,81.70
2023-04-09T23:19:39.869Z,80.03
2023-04-09T23:22:07.538Z,79.50
2023-04-09T23:24:34.810Z,78.93
2023-04-09T23:27:03.993Z,79.31
2023-04-09T23:29:31.306Z,82.06
2023-04-09T23:31:58.937Z,82.93
2023-04-09T23:34:27.576Z,82.71
2023-04-09T23:36:54.863Z,83.07
2023-04-09T23:39:22.172Z,82.56
2023-04-09T23:41:49.441Z,81.52
2023-04-09T23:44:16.699Z,81.66
2023-04-09T23:46:43.965Z,82.72
2023-04-09T23:49:11.275Z,82.62
2023-04-09T23:51:39.854Z,84.59
2023-04-09T23:54:07.108Z,85.63
2023-04-09T23:56:34.364Z,86.94
2023-04-09T23:59:01.723Z,86.39
